Time;durP1;ratioP1;P1;durP2;ratioP2;P2;SDS_P1;SDS_P2;PMS_P1;PMS_P2;Temp;Humidity;BMP_temperature;BMP_pressure;BME280_temperature;BME280_humidity;BME280_pressure;Samples;Min_cycle;Max_cycle;Signal;HPM_P1;HPM_P2
2022/09/29 00:02:17;;;;;;;11.00;8.90;;;9.70;99.90;;;;;;4989317;28;20234;-77
2022/09/29 00:04:44;;;;;;;8.97;8.07;;;9.70;99.90;;;;;;5000215;28;20203;-77
2022/09/29 00:07:11;;;;;;;10.57;9.23;;;9.60;99.90;;;;;;5008167;28;20223;-77
2022/09/29 00:09:40;;;;;;;10.60;9.50;;;9.70;99.90;;;;;;4986728;28;20211;-77
2022/09/29 00:12:07;;;;;;;11.70;9.17;;;9.60;99.90;;;;;;4986615;28;20224;-77
2022/09/29 00:14:35;;;;;;;10.70;8.97;;;9.60;99.90;;;;;;4993116;28;20211;-77
2022/09/29 00:17:02;;;;;;;11.40;9.23;;;9.50;99.90;;;;;;4980742;28;20231;-77
2022/09/29 00:19:32;;;;;;;10.43;9.43;;;9.40;99.90;;;;;;4981510;28;20211;-77
2022/09/29 00:22:00;;;;;;;10.97;9.10;;;9.40;99.90;;;;;;4984723;28;20224;-77
2022/09/29 00:24:28;;;;;;;10.57;9.50;;;9.40;99.90;;;;;;4994175;28;20208;-77
2022/09/29 00:26:57;;;;;;;14.57;9.50;;;9.40;99.90;;;;;;5005856;28;20196;-77
2022/09/29 00:29:25;;;;;;;10.73;9.63;;;9.30;99.90;;;;;;4986126;28;20207;-77
2022/09/29 00:31:52;;;;;;;9.93;8.67;;;9.40;99.90;;;;;;5007328;28;20687;-77
2022/09/29 00:34:20;;;;;;;10.90;9.60;;;9.40;99.90;;;;;;5001941;28;20191;-77
2022/09/29 00:36:47;;;;;;;11.33;9.83;;;9.40;99.90;;;;;;4994814;28;20682;-77
2022/09/29 00:39:15;;;;;;;10.43;9.27;;;9.50;99.90;;;;;;5015292;28;20214;-77
2022/09/29 00:41:43;;;;;;;11.20;9.23;;;9.50;99.90;;;;;;5022435;28;20204;-77
2022/09/29 00:44:43;;;;;;;11.93;9.53;;;9.50;99.90;;;;;;4993996;28;20196;-77
2022/09/29 00:47:16;;;;;;;10.93;9.47;;;9.50;99.90;;;;;;4994311;28;20200;-77
2022/09/29 00:49:47;;;;;;;12.30;9.47;;;9.60;99.90;;;;;;5011502;28;20674;-77
2022/09/29 00:52:18;;;;;;;10.97;9.87;;;9.60;99.90;;;;;;4990263;28;20220;-77
2022/09/29 00:54:50;;;;;;;13.97;10.23;;;9.50;99.90;;;;;;4984824;28;20206;-77
2022/09/29 00:57:23;;;;;;;10.70;9.50;;;9.40;99.90;;;;;;5008740;28;20219;-77
2022/09/29 00:59:55;;;;;;;11.00;9.70;;;9.40;99.90;;;;;;4993783;28;20216;-77
2022/09/29 01:02:24;;;;;;;10.43;9.40;;;9.40;99.90;;;;;;5007385;28;20227;-77
2022/09/29 01:04:54;;;;;;;10.10;9.00;;;9.40;99.90;;;;;;5012159;28;20210;-77
2022/09/29 01:07:23;;;;;;;11.30;9.73;;;9.40;99.90;;;;;;4991065;28;20211;-77
2022/09/29 01:09:53;;;;;;;10.20;8.87;;;9.40;99.90;;;;;;5013132;28;20215;-77
2022/09/29 01:12:21;;;;;;;11.83;9.60;;;9.40;99.90;;;;;;4993480;28;20225;-77
2022/09/29 01:14:49;;;;;;;10.97;9.87;;;9.40;99.90;;;;;;4994933;28;20210;-77
2022/09/29 01:17:17;;;;;;;11.20;9.10;;;9.50;99.90;;;;;;4984462;28;20210;-77
2022/09/29 01:19:57;;;;;;;10.60;8.93;;;9.50;99.90;;;;;;5004777;28;20195;-77
2022/09/29 01:22:46;;;;;;;12.37;9.47;;;9.40;99.90;;;;;;4987522;28;20220;-77
2022/09/29 01:25:35;;;;;;;10.30;9.30;;;9.30;99.90;;;;;;5002067;28;20204;-77
2022/09/29 01:28:40;;;;;;;12.47;9.00;;;9.40;99.90;;;;;;4998990;28;20203;-77
2022/09/29 01:31:21;;;;;;;12.20;10.43;;;9.30;99.90;;;;;;4997698;28;20199;-77
2022/09/29 01:33:57;;;;;;;10.67;9.40;;;9.40;99.90;;;;;;4992632;28;20224;-77
2022/09/29 01:36:34;;;;;;;12.10;9.90;;;9.40;99.90;;;;;;5004548;28;20206;-77
2022/09/29 01:39:13;;;;;;;11.17;9.97;;;9.50;99.90;;;;;;5000054;28;20238;-77
2022/09/29 01:41:47;;;;;;;11.47;10.13;;;9.50;99.90;;;;;;4987064;28;20199;-77
2022/09/29 01:44:21;;;;;;;10.50;9.50;;;9.60;99.90;;;;;;4986502;28;20210;-77
2022/09/29 01:46:53;;;;;;;12.17;10.37;;;9.60;99.90;;;;;;5002470;28;20675;-77
2022/09/29 01:49:25;;;;;;;11.10;9.90;;;9.60;99.90;;;;;;5008444;28;20203;-77
2022/09/29 01:51:55;;;;;;;12.83;10.23;;;9.50;99.90;;;;;;4991051;28;20223;-77
2022/09/29 01:54:28;;;;;;;13.50;9.60;;;9.50;99.90;;;;;;5002916;28;20195;-77
2022/09/29 01:57:00;;;;;;;11.10;9.90;;;9.50;99.90;;;;;;4985267;28;20212;-77
2022/09/29 01:59:34;;;;;;;13.53;10.60;;;9.60;99.90;;;;;;5001539;28;20199;-77
2022/09/29 02:02:09;;;;;;;11.17;10.00;;;9.50;99.90;;;;;;4992723;28;20238;-77
2022/09/29 02:04:42;;;;;;;11.07;9.97;;;9.30;99.90;;;;;;5002301;28;20210;-77
2022/09/29 02:07:16;;;;;;;12.10;9.67;;;9.30;99.90;;;;;;5007059;28;20204;-77
2022/09/29 02:09:51;;;;;;;11.20;8.90;;;9.30;99.90;;;;;;4984023;28;20196;-77
2022/09/29 02:12:25;;;;;;;10.97;9.27;;;9.10;99.90;;;;;;5007999;28;20223;-77
2022/09/29 02:14:55;;;;;;;11.10;8.93;;;9.00;99.90;;;;;;5001584;28;20196;-77
2022/09/29 02:17:30;;;;;;;10.10;9.03;;;9.00;99.90;;;;;;5007154;28;20196;-77
2022/09/29 02:19:57;;;;;;;12.03;9.27;;;9.00;99.90;;;;;;4991201;28;20564;-77
2022/09/29 02:22:25;;;;;;;12.20;9.97;;;9.00;99.90;;;;;;4989535;28;20223;-77
2022/09/29 02:24:55;;;;;;;12.30;11.00;;;9.00;99.90;;;;;;4991816;28;20207;-77
2022/09/29 02:27:23;;;;;;;11.90;9.70;;;9.00;99.90;;;;;;4995325;28;20214;-77
2022/09/29 02:29:51;;;;;;;11.13;10.03;;;9.10;99.90;;;;;;5005080;28;20200;-77
2022/09/29 02:32:19;;;;;;;10.73;9.53;;;9.10;99.90;;;;;;4997994;28;20216;-77
2022/09/29 02:34:52;;;;;;;11.37;9.37;;;8.80;99.90;;;;;;4994974;28;20200;-77
2022/09/29 02:37:35;;;;;;;12.13;10.13;;;8.80;99.90;;;;;;5006550;28;20203;-76
2022/09/29 02:40:17;;;;;;;12.90;10.17;;;9.10;99.90;;;;;;5005130;28;20212;-76
2022/09/29 02:42:57;;;;;;;11.17;9.53;;;9.20;99.90;;;;;;4994140;28;20711;-76
2022/09/29 02:45:36;;;;;;;12.43;10.13;;;9.10;99.90;;;;;;4986102;28;20199;-76
2022/09/29 02:48:14;;;;;;;11.97;9.47;;;9.20;99.90;;;;;;5004202;28;20188;-76
2022/09/29 02:50:52;;;;;;;12.00;9.77;;;9.00;99.90;;;;;;4995699;28;20191;-76
2022/09/29 02:53:28;;;;;;;10.67;9.50;;;8.90;99.90;;;;;;5000627;28;20219;-76
2022/09/29 02:56:04;;;;;;;12.33;9.60;;;8.80;99.90;;;;;;5013062;28;20195;-76
2022/09/29 02:58:38;;;;;;;10.90;9.30;;;8.70;99.90;;;;;;5002657;28;20207;-76
2022/09/29 03:01:07;;;;;;;10.17;8.97;;;8.80;99.90;;;;;;5002459;28;20204;-77
2022/09/29 03:03:34;;;;;;;10.67;9.27;;;8.70;99.90;;;;;;5011157;28;20231;-77
2022/09/29 03:06:03;;;;;;;9.90;8.77;;;8.60;99.90;;;;;;4991915;28;20199;-77
2022/09/29 03:08:31;;;;;;;10.53;9.03;;;8.70;99.90;;;;;;4993875;28;20203;-77
2022/09/29 03:10:58;;;;;;;10.73;9.63;;;8.70;99.90;;;;;;5004592;28;20196;-76
2022/09/29 03:13:26;;;;;;;10.37;9.33;;;8.90;99.90;;;;;;4993074;28;20227;-77
2022/09/29 03:15:54;;;;;;;11.57;10.23;;;8.90;99.90;;;;;;4987294;28;20211;-77
2022/09/29 03:18:22;;;;;;;10.90;9.47;;;9.00;99.90;;;;;;4995696;28;20224;-77
2022/09/29 03:20:49;;;;;;;11.63;9.27;;;8.90;99.90;;;;;;4988176;28;20207;-76
2022/09/29 03:23:18;;;;;;;11.47;9.60;;;8.90;99.90;;;;;;4991034;28;20220;-76
2022/09/29 03:25:46;;;;;;;10.53;9.40;;;9.00;99.90;;;;;;4997797;28;20200;-76
2022/09/29 03:28:15;;;;;;;10.83;9.50;;;9.00;99.90;;;;;;4991486;28;20203;-76
2022/09/29 03:30:43;;;;;;;9.97;8.67;;;9.00;99.90;;;;;;5010933;28;20194;-76
2022/09/29 03:33:11;;;;;;;11.17;8.83;;;9.00;99.90;;;;;;4987941;28;20231;-77
2022/09/29 03:35:39;;;;;;;14.43;9.40;;;9.00;99.90;;;;;;4995433;28;20200;-76
2022/09/29 03:38:06;;;;;;;11.80;9.80;;;9.00;99.90;;;;;;4994244;28;20204;-77
2022/09/29 03:40:35;;;;;;;10.10;8.57;;;9.10;99.90;;;;;;4993562;28;20230;-77
2022/09/29 03:43:02;;;;;;;10.43;9.13;;;9.10;99.90;;;;;;5008338;28;20216;-77
2022/09/29 03:45:30;;;;;;;10.50;9.40;;;9.20;99.90;;;;;;4987472;28;20200;-77
2022/09/29 03:47:57;;;;;;;9.87;8.77;;;9.20;99.90;;;;;;4990775;28;20207;-77
2022/09/29 03:50:24;;;;;;;9.50;8.50;;;9.20;99.90;;;;;;4991423;28;20561;-77
2022/09/29 03:52:52;;;;;;;10.57;9.50;;;9.10;99.90;;;;;;5008641;28;20220;-76
2022/09/29 03:55:19;;;;;;;9.43;8.53;;;9.10;99.90;;;;;;5002082;28;20195;-77
2022/09/29 03:57:48;;;;;;;9.20;8.40;;;9.20;99.90;;;;;;4996413;28;20205;-77
2022/09/29 04:00:16;;;;;;;10.63;9.33;;;9.20;99.90;;;;;;5001879;28;20572;-77
2022/09/29 04:02:43;;;;;;;10.83;9.53;;;9.00;99.90;;;;;;5010281;28;20594;-77
2022/09/29 04:05:13;;;;;;;10.70;9.47;;;9.00;99.90;;;;;;5001129;28;20223;-76
2022/09/29 04:07:40;;;;;;;10.17;9.17;;;9.00;99.90;;;;;;4999176;28;20203;-77
2022/09/29 04:10:09;;;;;;;11.90;9.10;;;9.10;99.90;;;;;;4996701;28;20207;-76
2022/09/29 04:12:36;;;;;;;10.73;9.37;;;9.00;99.90;;;;;;4996308;28;20234;-77
2022/09/29 04:15:06;;;;;;;9.87;8.87;;;9.00;99.90;;;;;;4991230;28;20216;-77
2022/09/29 04:17:33;;;;;;;12.07;8.70;;;9.00;99.90;;;;;;5005359;28;20568;-77
2022/09/29 04:20:01;;;;;;;10.23;9.03;;;9.00;99.90;;;;;;5020996;28;20230;-77
2022/09/29 04:22:29;;;;;;;11.20;10.00;;;9.00;99.90;;;;;;5010850;28;20220;-76
2022/09/29 04:24:57;;;;;;;9.50;8.57;;;9.00;99.90;;;;;;4999806;28;20204;-77
2022/09/29 04:27:24;;;;;;;11.30;9.23;;;9.00;99.90;;;;;;5019879;28;20704;-77
2022/09/29 04:29:52;;;;;;;10.77;9.23;;;9.10;99.90;;;;;;5023412;28;20203;-77
2022/09/29 04:32:21;;;;;;;12.23;8.93;;;9.10;99.90;;;;;;4994125;28;20683;-77
2022/09/29 04:34:48;;;;;;;11.67;9.27;;;9.00;99.90;;;;;;5004647;28;20655;-77
2022/09/29 04:37:15;;;;;;;10.30;9.07;;;8.80;99.90;;;;;;5020557;28;20215;-77
2022/09/29 04:39:43;;;;;;;10.93;9.20;;;8.80;99.90;;;;;;5001746;28;20215;-77
2022/09/29 04:42:10;;;;;;;10.73;8.87;;;8.90;99.90;;;;;;4994774;28;20231;-77
2022/09/29 04:44:38;;;;;;;10.70;9.60;;;8.90;99.90;;;;;;5000738;28;20207;-77
2022/09/29 04:47:05;;;;;;;12.53;9.20;;;9.00;99.90;;;;;;4993884;28;20668;-77
2022/09/29 04:49:34;;;;;;;11.80;9.23;;;8.90;99.90;;;;;;5009453;28;20208;-77
2022/09/29 04:52:02;;;;;;;10.17;9.10;;;8.80;99.90;;;;;;5004409;28;20595;-77
2022/09/29 04:54:31;;;;;;;10.23;9.20;;;8.70;99.90;;;;;;4993918;28;20710;-77
2022/09/29 04:56:58;;;;;;;10.97;9.03;;;8.70;99.90;;;;;;5020349;28;20572;-77
2022/09/29 04:59:26;;;;;;;11.00;8.77;;;8.60;99.90;;;;;;5006369;28;20570;-77
2022/09/29 05:01:53;;;;;;;10.80;9.27;;;8.70;99.90;;;;;;5015130;28;20239;-77
2022/09/29 05:04:21;;;;;;;12.43;9.43;;;8.70;99.90;;;;;;5010877;28;20203;-77
2022/09/29 05:06:50;;;;;;;10.53;9.43;;;8.70;99.90;;;;;;4994231;28;20200;-77
2022/09/29 05:09:17;;;;;;;9.03;8.13;;;8.80;99.90;;;;;;5012940;28;20197;-78
2022/09/29 05:11:45;;;;;;;10.43;8.60;;;8.60;99.90;;;;;;5013314;28;20211;-77
2022/09/29 05:14:13;;;;;;;12.23;9.10;;;8.40;99.90;;;;;;4989978;28;20667;-77
2022/09/29 05:16:40;;;;;;;9.17;8.23;;;8.30;99.90;;;;;;4990700;28;20207;-76
2022/09/29 05:19:09;;;;;;;10.70;8.83;;;8.30;99.90;;;;;;4993941;28;20216;-77
2022/09/29 05:21:37;;;;;;;11.00;8.47;;;8.20;99.90;;;;;;5008376;28;20573;-77
2022/09/29 05:24:06;;;;;;;11.47;9.47;;;8.30;99.90;;;;;;4988916;28;20208;-77
2022/09/29 05:26:33;;;;;;;12.33;9.37;;;8.20;99.90;;;;;;4986672;28;20211;-77
2022/09/29 05:29:01;;;;;;;11.50;9.60;;;8.30;99.90;;;;;;4994283;28;20204;-77
2022/09/29 05:31:28;;;;;;;10.50;9.40;;;8.30;99.90;;;;;;5002845;28;20206;-77
2022/09/29 05:33:56;;;;;;;11.67;9.40;;;8.30;99.90;;;;;;4992597;28;20278;-77
2022/09/29 05:36:24;;;;;;;11.33;10.13;;;8.30;99.90;;;;;;4980470;28;20210;-77
2022/09/29 05:38:51;;;;;;;10.47;9.07;;;8.30;99.90;;;;;;5005413;28;20203;-77
2022/09/29 05:41:22;;;;;;;10.57;9.33;;;8.30;99.90;;;;;;4989044;28;20227;-77
2022/09/29 05:43:50;;;;;;;10.87;9.77;;;8.20;99.90;;;;;;4986353;28;20229;-77
2022/09/29 05:46:18;;;;;;;11.70;9.87;;;8.30;99.90;;;;;;4992969;28;20215;-76
2022/09/29 05:48:46;;;;;;;11.57;10.20;;;8.30;99.90;;;;;;4986751;28;20211;-76
2022/09/29 05:51:15;;;;;;;11.40;9.70;;;8.30;99.90;;;;;;5000439;28;20557;-76
2022/09/29 05:53:43;;;;;;;12.23;9.47;;;8.30;99.90;;;;;;4994700;28;20224;-77
2022/09/29 05:56:13;;;;;;;13.60;10.53;;;8.40;99.90;;;;;;4990223;28;20211;-77
2022/09/29 05:58:42;;;;;;;12.80;9.93;;;8.50;99.90;;;;;;4989197;28;20207;-76
2022/09/29 06:01:12;;;;;;;13.47;10.27;;;8.50;99.90;;;;;;4995675;28;20232;-76
2022/09/29 06:03:40;;;;;;;11.97;9.93;;;8.40;99.90;;;;;;4982124;28;20231;-76
2022/09/29 06:06:09;;;;;;;12.30;10.03;;;8.40;99.90;;;;;;4996071;28;20204;-76
2022/09/29 06:08:36;;;;;;;11.93;10.40;;;8.30;99.90;;;;;;4993266;28;20563;-76
2022/09/29 06:11:05;;;;;;;11.50;10.30;;;8.20;99.90;;;;;;5002667;28;20207;-77
2022/09/29 06:13:33;;;;;;;13.30;10.23;;;8.20;99.90;;;;;;5006622;28;20239;-77
2022/09/29 06:16:02;;;;;;;11.23;9.23;;;8.10;99.90;;;;;;5009706;28;20207;-77
2022/09/29 06:18:30;;;;;;;11.03;9.80;;;8.10;99.90;;;;;;5003234;28;20200;-78
2022/09/29 06:21:01;;;;;;;10.43;9.37;;;8.20;99.90;;;;;;4986862;28;20215;-77
2022/09/29 06:23:29;;;;;;;12.00;10.73;;;8.20;99.90;;;;;;4985097;28;20242;-77
2022/09/29 06:25:57;;;;;;;11.87;10.23;;;8.30;99.90;;;;;;4993013;28;20211;-77
2022/09/29 06:28:25;;;;;;;11.90;10.00;;;8.30;99.90;;;;;;4991422;28;20688;-77
2022/09/29 06:30:52;;;;;;;13.77;10.73;;;8.40;99.90;;;;;;4990059;28;20201;-78
2022/09/29 06:33:21;;;;;;;13.23;10.57;;;8.40;99.90;;;;;;5004769;28;20302;-78
2022/09/29 06:38:46;;;;;;;11.70;9.63;;;8.40;99.90;;;;;;5000246;28;20204;-77
2022/09/29 06:41:20;;;;;;;12.40;10.47;;;8.50;99.90;;;;;;5011304;28;20216;-78
2022/09/29 06:43:48;;;;;;;13.73;10.87;;;8.40;99.90;;;;;;4987839;28;20228;-77
2022/09/29 06:46:15;;;;;;;14.37;10.80;;;8.50;99.90;;;;;;5002170;28;20211;-78
2022/09/29 06:48:45;;;;;;;12.40;11.20;;;8.60;99.90;;;;;;4985828;28;20668;-78
2022/09/29 06:51:13;;;;;;;13.70;11.60;;;8.70;99.90;;;;;;4984970;28;20207;-78
2022/09/29 06:53:41;;;;;;;11.47;10.23;;;8.80;99.90;;;;;;4993542;28;20595;-78
2022/09/29 06:56:09;;;;;;;14.07;11.17;;;8.90;99.90;;;;;;4999445;28;20203;-78
2022/09/29 06:58:39;;;;;;;12.43;10.40;;;9.00;99.90;;;;;;4999434;28;20223;-79
2022/09/29 07:01:06;;;;;;;12.07;10.77;;;9.00;99.90;;;;;;4995123;28;20238;-78
2022/09/29 07:03:35;;;;;;;14.13;12.20;;;9.10;99.90;;;;;;5010535;28;20223;-78
2022/09/29 07:06:04;;;;;;;14.33;11.20;;;9.20;99.90;;;;;;4991851;28;20211;-79
2022/09/29 07:08:34;;;;;;;13.00;11.43;;;9.40;99.90;;;;;;4987741;28;20211;-78
2022/09/29 07:11:01;;;;;;;16.93;12.00;;;9.50;99.90;;;;;;4993224;28;20664;-78
2022/09/29 07:13:29;;;;;;;13.50;11.70;;;9.60;99.90;;;;;;5002445;28;20230;-78
2022/09/29 07:15:57;;;;;;;14.47;12.43;;;9.70;99.90;;;;;;5009867;28;20195;-78
2022/09/29 07:18:24;;;;;;;14.30;12.50;;;9.70;99.90;;;;;;5023027;28;20206;-78
2022/09/29 07:20:51;;;;;;;12.97;11.17;;;9.70;99.90;;;;;;5003188;28;20220;-77
2022/09/29 07:23:20;;;;;;;16.27;12.60;;;9.80;99.90;;;;;;5003779;28;20216;-78
2022/09/29 07:25:48;;;;;;;13.73;12.20;;;9.80;99.90;;;;;;4998939;28;20203;-78
2022/09/29 07:28:15;;;;;;;12.80;11.43;;;9.70;99.90;;;;;;5007148;28;20675;-78
2022/09/29 07:30:43;;;;;;;14.20;11.77;;;9.90;99.90;;;;;;5013313;28;20200;-77
2022/09/29 07:33:10;;;;;;;13.60;11.47;;;10.00;99.90;;;;;;5015749;28;20228;-78
2022/09/29 07:35:37;;;;;;;13.37;11.97;;;10.10;99.90;;;;;;5022513;28;20195;-78
2022/09/29 07:38:05;;;;;;;11.90;10.70;;;10.20;99.90;;;;;;5005687;28;20599;-78
2022/09/29 07:40:34;;;;;;;12.10;10.80;;;10.30;99.90;;;;;;5020681;28;20224;-77
2022/09/29 07:43:01;;;;;;;14.60;11.57;;;10.30;99.90;;;;;;5018426;28;20692;-78
2022/09/29 07:45:28;;;;;;;12.90;10.70;;;10.40;99.90;;;;;;5003868;28;20207;-77
2022/09/29 07:47:56;;;;;;;13.93;11.33;;;10.50;99.90;;;;;;4992769;28;20204;-78
2022/09/29 07:50:24;;;;;;;17.60;11.23;;;10.40;99.90;;;;;;4994935;28;20199;-80
2022/09/29 07:52:52;;;;;;;11.60;10.40;;;10.60;99.90;;;;;;5001090;28;20568;-79
2022/09/29 07:55:20;;;;;;;15.00;11.40;;;10.50;99.90;;;;;;4998431;28;20207;-79
2022/09/29 07:57:48;;;;;;;13.03;11.60;;;10.60;99.90;;;;;;4994070;28;20199;-79
2022/09/29 08:00:16;;;;;;;13.50;10.33;;;10.60;99.90;;;;;;4998555;28;20199;-79
2022/09/29 08:02:45;;;;;;;12.47;10.97;;;10.70;99.90;;;;;;5018650;28;20227;-78
2022/09/29 08:05:12;;;;;;;11.87;10.57;;;10.80;99.90;;;;;;4994509;28;20211;-78
2022/09/29 08:07:39;;;;;;;11.27;9.93;;;10.90;99.90;;;;;;5007352;28;20191;-78
2022/09/29 08:10:08;;;;;;;14.13;11.30;;;11.10;99.90;;;;;;5011399;28;20194;-79
2022/09/29 08:12:35;;;;;;;12.63;11.23;;;11.10;99.90;;;;;;5003505;28;20223;-77
2022/09/29 08:15:04;;;;;;;12.10;10.80;;;11.10;99.90;;;;;;5012089;28;20207;-78
2022/09/29 08:17:32;;;;;;;13.57;12.17;;;11.10;99.90;;;;;;5015796;28;20191;-78
2022/09/29 08:20:00;;;;;;;11.60;10.20;;;11.20;99.90;;;;;;5001547;28;20219;-78
2022/09/29 08:22:27;;;;;;;13.20;9.93;;;11.20;99.90;;;;;;5007188;28;20223;-77
2022/09/29 08:24:54;;;;;;;13.20;11.57;;;11.40;99.90;;;;;;5011516;28;20214;-78
2022/09/29 08:27:22;;;;;;;13.80;10.93;;;11.50;99.90;;;;;;4996027;28;20664;-78
2022/09/29 08:29:49;;;;;;;12.90;11.47;;;11.60;99.90;;;;;;5009455;28;20204;-79
2022/09/29 08:32:18;;;;;;;12.90;11.00;;;11.70;99.90;;;;;;5005129;28;20230;-78
2022/09/29 08:34:45;;;;;;;12.10;10.80;;;11.70;99.90;;;;;;5007180;28;20960;-78
2022/09/29 08:37:13;;;;;;;13.13;10.65;;;11.70;99.90;;;;;;5005777;28;20204;-78
2022/09/29 08:39:40;;;;;;;12.17;10.87;;;11.70;99.90;;;;;;5004315;28;20204;-78
2022/09/29 08:42:16;;;;;;;12.03;10.37;;;11.70;99.90;;;;;;5012971;28;20231;-78
2022/09/29 08:44:50;;;;;;;10.97;8.73;;;11.80;99.90;;;;;;4985581;28;20208;-78
2022/09/29 08:47:25;;;;;;;10.37;9.03;;;11.80;99.90;;;;;;5013940;28;20211;-78
2022/09/29 08:49:57;;;;;;;10.47;9.23;;;11.90;99.90;;;;;;5015222;28;20199;-77
2022/09/29 08:52:27;;;;;;;9.53;8.60;;;11.70;99.90;;;;;;4995591;28;20308;-78
2022/09/29 08:55:01;;;;;;;8.40;7.60;;;11.80;99.90;;;;;;4979975;28;20207;-78
2022/09/29 08:57:29;;;;;;;6.97;6.30;;;11.80;99.90;;;;;;4991269;28;20209;-79
2022/09/29 08:59:59;;;;;;;9.07;6.70;;;11.80;99.90;;;;;;5014052;28;20199;-77
2022/09/29 09:02:59;;;;;;;6.50;5.90;;;11.90;99.90;;;;;;5006293;28;20222;-79
2022/09/29 09:05:55;;;;;;;5.87;4.90;;;12.00;99.90;;;;;;4995943;28;20211;-79
2022/09/29 09:08:36;;;;;;;9.37;7.30;;;11.80;99.90;;;;;;4996937;28;20191;-78
2022/09/29 09:11:18;;;;;;;8.30;7.47;;;11.90;99.90;;;;;;4995287;28;20215;-79
2022/09/29 09:13:57;;;;;;;13.10;9.50;;;12.20;99.90;;;;;;5007032;28;20283;-79
2022/09/29 09:16:35;;;;;;;12.30;10.20;;;12.20;99.90;;;;;;4993969;28;20212;-79
2022/09/29 09:19:29;;;;;;;12.60;10.00;;;12.30;99.90;;;;;;4996707;28;20196;-79
2022/09/29 09:22:03;;;;;;;15.90;9.43;;;12.50;99.90;;;;;;4998231;28;20231;-79
2022/09/29 09:24:42;;;;;;;10.37;9.23;;;12.60;99.90;;;;;;5002307;28;20206;-78
2022/09/29 09:27:13;;;;;;;10.63;9.50;;;12.70;99.90;;;;;;5013801;28;20210;-78
2022/09/29 09:29:44;;;;;;;6.47;5.55;;;12.70;99.90;;;;;;5023696;28;20200;-79
2022/09/29 09:32:16;;;;;;;8.43;5.43;;;12.80;99.90;;;;;;5018778;28;20224;-79
2022/09/29 09:34:52;;;;;;;7.50;5.80;;;12.90;99.90;;;;;;5014384;28;20204;-78
2022/09/29 09:37:22;;;;;;;10.38;5.57;;;12.90;99.90;;;;;;5015079;28;20199;-78
2022/09/29 09:39:57;;;;;;;3.88;3.45;;;13.00;99.90;;;;;;5023936;28;20204;-78
2022/09/29 09:42:27;;;;;;;2.25;1.80;;;13.10;99.90;;;;;;5001030;28;20219;-78
2022/09/29 09:44:59;;;;;;;4.75;4.25;;;13.20;99.90;;;;;;5001189;28;20222;-78
2022/09/29 09:47:29;;;;;;;6.30;5.35;;;13.30;99.90;;;;;;4995622;28;20575;-78
2022/09/29 09:50:01;;;;;;;6.80;5.55;;;13.10;99.90;;;;;;5016901;28;20567;-78
2022/09/29 09:52:37;;;;;;;5.78;5.13;;;13.20;99.90;;;;;;5020301;28;20207;-78
2022/09/29 09:55:07;;;;;;;5.40;4.32;;;13.50;99.90;;;;;;5008367;28;20199;-79
2022/09/29 09:58:00;;;;;;;4.05;3.28;;;13.70;99.90;;;;;;5022626;28;20192;-79
2022/09/29 10:00:33;;;;;;;3.22;2.83;;;13.80;99.90;;;;;;5012644;28;20231;-79
2022/09/29 10:03:04;;;;;;;3.63;3.20;;;13.80;99.90;;;;;;4998015;28;20243;-79
2022/09/29 10:05:37;;;;;;;3.55;3.20;;;13.80;99.90;;;;;;4994386;28;20203;-79
2022/09/29 10:08:07;;;;;;;6.45;4.45;;;13.70;99.90;;;;;;4994207;28;20203;-79
2022/09/29 10:10:34;;;;;;;5.20;4.18;;;13.60;99.90;;;;;;5008617;28;20207;-79
2022/09/29 10:13:05;;;;;;;4.72;3.60;;;13.80;99.90;;;;;;4990205;28;20219;-79
2022/09/29 10:15:38;;;;;;;4.32;3.42;;;13.80;99.90;;;;;;4998440;28;20207;-79
2022/09/29 10:18:13;;;;;;;3.38;3.08;;;14.00;99.90;;;;;;5010083;28;20200;-79
2022/09/29 10:20:42;;;;;;;3.88;3.10;;;14.10;98.60;;;;;;4995085;28;20204;-79
2022/09/29 10:23:28;;;;;;;5.03;2.80;;;14.20;98.50;;;;;;4994185;28;20220;-79
2022/09/29 10:26:15;;;;;;;3.40;2.85;;;14.50;98.40;;;;;;4997831;28;20203;-79
2022/09/29 10:28:48;;;;;;;3.60;3.10;;;14.40;97.00;;;;;;4990126;28;20199;-78
2022/09/29 10:31:19;;;;;;;5.60;2.95;;;14.40;96.80;;;;;;5008157;28;20203;-79
2022/09/29 10:33:49;;;;;;;2.95;2.75;;;14.50;97.00;;;;;;4999159;28;20215;-79
2022/09/29 10:36:20;;;;;;;3.97;3.65;;;14.80;97.40;;;;;;4999825;28;20601;-79
2022/09/29 10:38:51;;;;;;;4.18;3.60;;;14.90;97.80;;;;;;5002036;28;20208;-80
2022/09/29 10:41:19;;;;;;;3.28;2.80;;;15.00;97.30;;;;;;5026454;28;20219;-79
2022/09/29 10:43:51;;;;;;;4.65;3.33;;;15.20;97.30;;;;;;4999159;28;20247;-80
2022/09/29 10:46:48;;;;;;;2.20;2.00;;;15.30;97.50;;;;;;5010981;28;20226;-79
2022/09/29 10:49:18;;;;;;;2.13;1.52;;;15.20;94.90;;;;;;5006443;28;20207;-79
2022/09/29 10:51:57;;;;;;;4.88;2.80;;;15.30;91.90;;;;;;5004325;28;20212;-79
2022/09/29 10:54:26;;;;;;;5.85;3.15;;;14.90;94.30;;;;;;5004346;28;20202;-80
2022/09/29 10:56:55;;;;;;;3.95;2.65;;;14.90;96.20;;;;;;5002433;28;20667;-79
2022/09/29 10:59:24;;;;;;;4.68;2.65;;;14.70;96.00;;;;;;4995170;28;20211;-80
2022/09/29 11:01:55;;;;;;;4.80;2.92;;;14.60;95.90;;;;;;5003128;28;20235;-80
2022/09/29 11:04:26;;;;;;;2.53;2.30;;;14.40;95.80;;;;;;5009428;28;20204;-80
2022/09/29 11:06:55;;;;;;;2.33;2.10;;;14.30;96.00;;;;;;5006646;28;20208;-79
2022/09/29 11:09:35;;;;;;;2.28;2.08;;;14.40;96.20;;;;;;5003027;28;20199;-80
2022/09/29 11:12:02;;;;;;;3.05;2.03;;;15.00;95.90;;;;;;5011698;28;20598;-79
2022/09/29 11:14:32;;;;;;;2.80;2.47;;;15.00;93.10;;;;;;4996576;28;20208;-79
2022/09/29 11:17:01;;;;;;;3.60;2.08;;;15.40;92.90;;;;;;5008193;28;20586;-79
2022/09/29 11:19:30;;;;;;;3.17;2.05;;;15.70;93.40;;;;;;4994867;28;20219;-79
2022/09/29 11:22:18;;;;;;;3.03;2.00;;;15.70;92.80;;;;;;4991895;28;20234;-80
2022/09/29 11:25:25;;;;;;;3.88;2.15;;;15.90;91.40;;;;;;4989190;28;20199;-79
2022/09/29 11:28:09;;;;;;;2.22;2.03;;;15.90;91.10;;;;;;4995201;28;20204;-80
2022/09/29 11:30:47;;;;;;;2.58;2.33;;;15.80;92.10;;;;;;4999150;28;20286;-80
2022/09/29 11:33:26;;;;;;;3.45;1.90;;;15.90;90.50;;;;;;5015659;28;20219;-79
2022/09/29 11:36:01;;;;;;;3.28;1.80;;;15.80;91.00;;;;;;5008756;28;20195;-78
2022/09/29 11:38:55;;;;;;;3.25;1.80;;;15.30;90.70;;;;;;4988375;28;20203;-79
2022/09/29 11:41:40;;;;;;;2.35;1.73;;;15.20;91.60;;;;;;5004234;28;20202;-79
2022/09/29 11:44:21;;;;;;;2.58;2.00;;;15.50;91.40;;;;;;5008875;28;20234;-80
2022/09/29 11:47:01;;;;;;;4.03;2.20;;;15.90;90.60;;;;;;4985703;28;20211;-79
2022/09/29 11:49:57;;;;;;;2.55;1.80;;;16.30;90.00;;;;;;4990759;28;20671;-79
2022/09/29 11:52:42;;;;;;;2.63;1.75;;;16.60;90.00;;;;;;4993424;28;20231;-79
2022/09/29 11:55:33;;;;;;;2.20;1.77;;;17.70;88.50;;;;;;4988315;28;20198;-80
2022/09/29 11:58:25;;;;;;;3.47;1.80;;;17.70;85.90;;;;;;4982519;28;20211;-79
2022/09/29 12:01:09;;;;;;;2.33;1.45;;;17.70;81.50;;;;;;4986795;28;20200;-79
2022/09/29 12:03:46;;;;;;;2.13;1.40;;;17.70;82.70;;;;;;5008478;28;20738;-79
2022/09/29 12:06:46;;;;;;;2.00;1.63;;;17.50;80.00;;;;;;4994762;28;20195;-79
2022/09/29 12:09:29;;;;;;;3.10;1.50;;;17.80;79.60;;;;;;4998309;28;20706;-80
2022/09/29 12:12:08;;;;;;;3.80;1.20;;;18.40;78.60;;;;;;4991696;28;20223;-79
2022/09/29 12:14:53;;;;;;;3.13;1.40;;;18.70;77.20;;;;;;4984583;28;20207;-79
2022/09/29 12:17:21;;;;;;;1.98;1.58;;;18.90;74.90;;;;;;4992239;28;20223;-79
2022/09/29 12:19:58;;;;;;;1.80;1.20;;;18.30;69.10;;;;;;4991827;28;20199;-79
2022/09/29 12:22:25;;;;;;;2.35;1.67;;;18.70;75.10;;;;;;4984762;28;20222;-80
2022/09/29 12:24:56;;;;;;;2.03;1.35;;;18.70;74.50;;;;;;4987976;28;20210;-79
2022/09/29 12:27:29;;;;;;;2.65;2.45;;;19.50;74.50;;;;;;5000092;28;20207;-80
2022/09/29 12:30:02;;;;;;;3.25;1.80;;;20.40;72.60;;;;;;4997526;28;20203;-80
2022/09/29 12:32:35;;;;;;;1.73;1.50;;;21.00;70.60;;;;;;4997267;28;20231;-80
2022/09/29 12:35:09;;;;;;;2.90;1.92;;;20.90;67.60;;;;;;5005584;28;20199;-79
2022/09/29 12:37:46;;;;;;;4.35;2.05;;;20.50;66.10;;;;;;5004853;28;20196;-80
2022/09/29 12:40:20;;;;;;;1.58;1.40;;;19.30;64.40;;;;;;5013998;28;20200;-80
2022/09/29 12:43:01;;;;;;;2.20;1.40;;;18.50;64.50;;;;;;5009642;28;20230;-79
2022/09/29 12:45:35;;;;;;;1.30;1.10;;;19.10;67.50;;;;;;4992207;28;20203;-80
2022/09/29 12:48:19;;;;;;;2.90;1.30;;;18.30;62.40;;;;;;5000783;28;20215;-80
2022/09/29 12:50:53;;;;;;;2.22;1.40;;;19.30;63.10;;;;;;5002970;28;20204;-79
2022/09/29 12:53:26;;;;;;;4.38;1.58;;;18.60;64.40;;;;;;5002765;28;20215;-80
2022/09/29 12:55:58;;;;;;;2.20;1.58;;;18.60;66.70;;;;;;5007298;28;20204;-79
2022/09/29 12:58:35;;;;;;;2.92;1.77;;;18.40;69.40;;;;;;4992310;28;20200;-80
2022/09/29 13:01:19;;;;;;;2.40;1.95;;;18.40;69.60;;;;;;4996597;28;20202;-80
2022/09/29 13:04:29;;;;;;;3.28;1.85;;;18.30;68.70;;;;;;5013106;28;20234;-80
2022/09/29 13:07:31;;;;;;;2.95;1.35;;;18.30;68.90;;;;;;4995500;28;20208;-79
2022/09/29 13:10:37;;;;;;;2.38;1.60;;;20.20;68.10;;;;;;5008729;28;20195;-80
2022/09/29 13:13:21;;;;;;;1.70;1.50;;;21.20;62.10;;;;;;5014816;28;20220;-79